CheckWX is a tool to help pilots better visualize weather data.  It is not intended as a substitute for an official pre-flight weather briefing.

05:16:00 UTC

KCWA TAF
Central Wisconsin Airport
Mosinee, Wisconsin, USA
KCWA 240331Z 2404/2424 07012G17KT 2SM FZRA OVC007 FM240800 32016G27KT 1SM -SN BR OVC006 TEMPO 2408/2412 1/2SM SN FG OVC002 FM241600 29022G37KT 5SM -SHSN BLSN OVC015 FM242100 29022G39KT P6SM OVC022

Feb-24@
04:00 UTC

Feb-24 @ 04:00 UTC

Feb-24@
08:00 UTC

Feb-24 @ 08:00 UTC

KCWA 240331Z 2404/2424 07012G17KT 2SM FZRA OVC007
Wind
  • 070° at 12 KTS
  • {Gusting to 17 KTS
Conditions
Freezing Rain
Cloud Levels
  • Overcast at 700' AGL

Feb-24@
08:00 UTC

Feb-24 @ 08:00 UTC

Feb-24@
12:00 UTC

Feb-24 @ 12:00 UTC

TEMPO 2408/2412 1/2SM SN FG OVC002

Temporary

Temporary Changes expected for less than half the time period

Conditions
Snow, Fog
Cloud Levels
  • Overcast at 200' AGL

Feb-24@
08:00 UTC

Feb-24 @ 08:00 UTC

Feb-24@
16:00 UTC

Feb-24 @ 16:00 UTC

FM240800 32016G27KT 1SM -SN BR OVC006

From

From Standard forecast or significant change

Wind
  • 320° at 16 KTS
  • {Gusting to 27 KTS
Conditions
Light Snow, Mist
Cloud Levels
  • Overcast at 600' AGL

Feb-24@
16:00 UTC

Feb-24 @ 16:00 UTC

Feb-24@
21:00 UTC

Feb-24 @ 21:00 UTC

FM241600 29022G37KT 5SM -SHSN BLSN OVC015

From

From Standard forecast or significant change

Wind
  • 290° at 22 KTS
  • {Gusting to 37 KTS
Conditions
Light Snow, Blowing Snow
Cloud Levels
  • Overcast at 1,500' AGL

Feb-24@
21:00 UTC

Feb-24 @ 21:00 UTC

Feb-25@
00:00 UTC

Feb-25 @ 00:00 UTC

FM242100 29022G39KT P6SM OVC022

From

From Standard forecast or significant change

Wind
  • 290° at 22 KTS
  • {Gusting to 39 KTS
Cloud Levels
  • Overcast at 2,200' AGL